TFM - Tactical Decision Aid
ID: Runway Winds: CIG/VIS Threshold:

KPIT - Pittsburgh Intl, PA, US

Updated at: 2151 UTC 23 Apr 2019
Latest TAF at: 2111 UTC 23 Apr 2019

TAF Board

Time2051Z 23/22Z 23/23Z 24/00Z 24/01Z 24/02Z 24/03Z 24/04Z 24/05Z 24/06Z 24/07Z 24/08Z 24/09Z 24/10Z>>
Type OBS PRVL PRVL PRVL PRVL PRVL PRVL PRVL PRVL PRVL PRVL PRVL PRVL PRVL
VIS 10 >6 >6 >6 >6 >6 >6 >6 >6 >6 >6 >6 >6 >6
CIG 250 80 80 80 80 80 80 80 80 80 -- -- -- --
Cover BKN BKN BKN BKN BKN BKN BKN BKN BKN BKN SCT SCT SCT SCT
FltCat VFR VFR VFR VFR VFR VFR VFR VFR VFR VFR VFR VFR VFR VFR
WX -- -- -- -- -- -- -- -- -- -- -- -- -- --
WDir 240 240 240 240 240 240 240 240 240 240 310 310 310 310
WSpd 17 12 12 12 12 12 12 12 12 12 6 6 6 6
WGst 23 18 18 18 18 18 18 18 18 18 -- -- -- --

TDA Impact Legend

  None Marginal Slight Moderate High
Visibility (sm) >5 3≤X≤5 1≤X<3 0.5≤X<1 <0.5
Ceiling (100 ft) >30 10≤X≤30 4≤X<10 2≤X<4 <2
Wind Speed (kt) <15 15≤X<25 25≤X<30 ≥30
Wind Gust (kt) <15 15≤X<25 25≤X<35 ≥35
Weather No Wx Reported VCTS -TS,-FZRA TS,FZRA +TS,+FZRA
TAF
KPIT 232111Z 2321/2424 24012G18KT P6SM BKN080
  FM240700 31006KT P6SM SCT080


METAR
KPIT 232051Z 24017G23KT 10SM FEW065 SCT080 BKN250 22/14 A2983 RMK AO2 SLP106 60003 T02170144 58007
KPIT 231951Z 23011KT 10SM BKN044 BKN055 OVC070 19/14 A2984 RMK AO2 RAE27 TSE1858 SLP110 P0002 T01940139
KPIT 231859Z 26012KT 10SM -RA BKN065 OVC085 20/13 A2986 RMK AO2 LTG DSNT E TSE58 P0000 T02000128
KPIT 231851Z 26008KT 10SM -TSRA FEW050CB BKN065 OVC090 21/12 A2986 RMK AO2 PK WND 24027/1824 LTG DSNT E RAB22 TSB11 SLP115 OCNL LTGCCCG NE-E TS NE-E MOV E P0001 T02060122

Radar Display
Forecast Discussion